Time;durP1;ratioP1;P1;durP2;ratioP2;P2;SDS_P1;SDS_P2;PMS_P1;PMS_P2;Temp;Humidity;BMP_temperature;BMP_pressure;BME280_temperature;BME280_humidity;BME280_pressure;Samples;Min_cycle;Max_cycle;Signal;HPM_P1;HPM_P2
2022/07/24 00:01:18;;;;;;;5.05;3.30;;;20.00;99.90;;;20.41;90.88;101350.44;5166809;28;20042;-70
2022/07/24 00:03:50;;;;;;;4.20;3.15;;;20.00;99.90;;;20.38;91.64;101350.41;5158739;28;20048;-70
2022/07/24 00:06:22;;;;;;;4.40;3.22;;;19.90;99.90;;;20.33;91.68;101355.69;5166725;28;20105;-70
2022/07/24 00:08:54;;;;;;;5.78;3.80;;;19.90;99.90;;;20.28;92.11;101354.81;5166661;28;20404;-71
2022/07/24 00:11:27;;;;;;;5.32;3.50;;;19.80;99.90;;;20.24;92.53;101355.66;5166997;28;20104;-70
2022/07/24 00:13:59;;;;;;;4.35;3.30;;;19.80;99.90;;;20.18;92.67;101353.00;5166431;28;20058;-71
2022/07/24 00:16:32;;;;;;;6.53;3.67;;;19.70;99.90;;;20.17;92.53;101353.00;5166923;28;20108;-71
2022/07/24 00:19:04;;;;;;;6.47;3.80;;;19.70;99.90;;;20.13;92.67;101352.09;5165477;28;20047;-70
2022/07/24 00:21:37;;;;;;;4.53;3.40;;;19.70;99.90;;;20.11;92.97;101359.13;5166358;28;20042;-70
2022/07/24 00:24:09;;;;;;;5.38;3.58;;;19.60;99.90;;;20.06;93.21;101352.94;5166499;28;20042;-69
2022/07/24 00:26:41;;;;;;;5.43;3.40;;;19.60;99.90;;;20.01;93.93;101352.91;5151459;28;20051;-71
2022/07/24 00:29:13;;;;;;;4.40;3.38;;;19.50;99.90;;;19.97;94.32;101350.25;5146179;28;20047;-71
2022/07/24 00:31:47;;;;;;;6.30;3.90;;;19.50;99.90;;;19.94;94.87;101350.22;5146185;28;20054;-71
2022/07/24 00:34:19;;;;;;;5.63;3.80;;;19.50;99.90;;;19.92;95.41;101342.28;5145267;28;20046;-70
2022/07/24 00:36:51;;;;;;;5.47;3.67;;;19.50;99.90;;;19.91;94.99;101350.22;5145948;28;20050;-71
2022/07/24 00:39:23;;;;;;;6.38;4.75;;;19.40;99.90;;;19.88;94.93;101339.59;5146000;28;20403;-70
2022/07/24 00:41:56;;;;;;;6.35;3.55;;;19.40;99.90;;;19.85;94.80;101345.78;5162846;28;20050;-70
2022/07/24 00:44:28;;;;;;;5.28;3.47;;;19.40;99.90;;;19.83;95.24;101338.72;5166260;28;20046;-71
2022/07/24 00:47:02;;;;;;;5.75;3.95;;;19.40;99.90;;;19.80;95.52;101342.22;5166217;28;20108;-70
2022/07/24 00:49:34;;;;;;;4.82;3.88;;;19.40;99.90;;;19.78;95.80;101343.97;5165748;28;20070;-72
2022/07/24 00:52:06;;;;;;;5.28;3.63;;;19.30;99.90;;;19.74;95.57;101343.06;5166019;28;20042;-71
2022/07/24 00:54:39;;;;;;;6.20;3.53;;;19.30;99.90;;;19.73;95.26;101340.41;5165985;28;20129;-71
2022/07/24 00:57:11;;;;;;;4.85;3.50;;;19.20;99.90;;;19.72;95.20;101338.66;5165842;28;20050;-71
2022/07/24 00:59:43;;;;;;;6.05;4.10;;;19.20;99.90;;;19.71;94.95;101343.06;5165303;28;20042;-71
2022/07/24 01:02:17;;;;;;;6.07;4.18;;;19.20;99.90;;;19.70;94.14;101338.66;5161909;28;20046;-70
2022/07/24 01:04:49;;;;;;;6.93;4.60;;;19.20;99.90;;;19.67;93.26;101335.97;5162134;28;20117;-71
2022/07/24 01:07:21;;;;;;;6.05;3.97;;;19.20;99.90;;;19.70;93.11;101341.28;5165552;28;20046;-71
2022/07/24 01:09:54;;;;;;;6.35;4.10;;;19.30;99.90;;;19.72;92.83;101342.19;5165754;28;20049;-71
2022/07/24 01:12:27;;;;;;;5.43;3.92;;;19.30;99.90;;;19.74;93.19;101342.19;5165498;28;20050;-71
2022/07/24 01:14:59;;;;;;;5.55;3.90;;;19.30;99.90;;;19.74;93.72;101342.19;5165606;28;20050;-71
2022/07/24 01:17:35;;;;;;;6.18;3.95;;;19.30;99.90;;;19.71;94.27;101336.88;5165145;28;20495;-70
2022/07/24 01:20:10;;;;;;;5.93;4.32;;;19.30;99.90;;;19.67;94.93;101333.31;5165455;28;20470;-70
2022/07/24 01:22:43;;;;;;;4.60;3.53;;;19.20;99.90;;;19.63;94.50;101344.78;5165287;28;20054;-72
2022/07/24 01:25:15;;;;;;;5.28;3.80;;;19.20;99.90;;;19.63;94.86;101343.91;5165659;28;20384;-70
2022/07/24 01:27:47;;;;;;;4.60;3.60;;;19.20;99.90;;;19.65;94.26;101348.31;5165147;28;20042;-71
2022/07/24 01:30:19;;;;;;;4.85;3.60;;;19.20;99.90;;;19.66;93.35;101350.06;5165197;28;20125;-71
2022/07/24 01:32:52;;;;;;;5.45;3.88;;;19.20;99.90;;;19.67;93.14;101345.66;5165281;28;20050;-71
2022/07/24 01:35:24;;;;;;;6.90;4.28;;;19.20;99.90;;;19.64;93.23;101351.84;5165225;28;20046;-70
2022/07/24 01:37:58;;;;;;;5.50;3.72;;;19.20;99.90;;;19.63;92.71;101350.06;5164770;28;20051;-70
2022/07/24 01:40:30;;;;;;;5.70;3.70;;;19.20;99.90;;;19.63;92.74;101346.53;5165098;28;20043;-70
2022/07/24 01:43:02;;;;;;;4.70;3.30;;;19.20;99.90;;;19.59;92.93;101342.97;5164896;28;20046;-71
2022/07/24 01:45:35;;;;;;;5.28;4.20;;;19.20;99.90;;;19.57;93.17;101347.34;5164823;28;20606;-70
2022/07/24 01:48:07;;;;;;;5.45;3.55;;;19.20;99.90;;;19.58;93.01;101345.63;5164768;28;20046;-72
2022/07/24 01:50:39;;;;;;;5.30;3.53;;;19.10;99.90;;;19.54;93.34;101339.38;5165041;28;20042;-71
2022/07/24 01:53:13;;;;;;;5.05;3.50;;;19.10;99.90;;;19.51;93.54;101339.38;5165007;28;20034;-71
2022/07/24 01:55:46;;;;;;;6.68;4.00;;;19.10;99.90;;;19.47;93.50;101332.28;5165237;28;20054;-70
2022/07/24 01:58:19;;;;;;;7.47;4.38;;;19.00;99.90;;;19.46;93.62;101336.69;5164754;28;20050;-71
2022/07/24 02:00:51;;;;;;;5.40;3.70;;;19.00;99.90;;;19.44;93.67;101332.28;5164654;28;20050;-70
2022/07/24 02:03:23;;;;;;;6.13;4.22;;;19.00;99.90;;;19.41;93.47;101324.31;5165091;28;20049;-71
2022/07/24 02:05:55;;;;;;;6.40;4.25;;;19.00;99.90;;;19.36;93.41;101328.66;5164990;28;20530;-71
2022/07/24 02:08:29;;;;;;;5.03;3.78;;;19.00;99.90;;;19.34;93.43;101330.44;5164617;28;20133;-70
2022/07/24 02:11:01;;;;;;;5.65;3.80;;;19.00;99.90;;;19.34;93.42;101326.03;5164792;28;20515;-71
2022/07/24 02:13:33;;;;;;;5.80;4.03;;;19.00;99.90;;;19.34;93.43;101322.50;5164811;28;20056;-70
2022/07/24 02:16:06;;;;;;;5.10;3.50;;;18.90;99.90;;;19.34;93.38;101327.78;5165000;28;20042;-70
2022/07/24 02:18:39;;;;;;;5.90;3.70;;;18.90;99.90;;;19.34;93.42;101330.44;5164530;28;20047;-71
2022/07/24 02:21:11;;;;;;;5.13;3.50;;;18.90;99.90;;;19.31;93.93;101326.00;5164561;28;20491;-71
2022/07/24 02:23:44;;;;;;;6.40;3.80;;;18.90;99.90;;;19.29;94.27;101326.84;5164929;28;20055;-71
2022/07/24 02:26:17;;;;;;;5.10;3.60;;;18.90;99.90;;;19.25;94.19;101325.97;5164894;28;20050;-70
2022/07/24 02:28:49;;;;;;;6.07;3.95;;;18.80;99.90;;;19.23;94.58;101332.97;5164567;28;20057;-69
2022/07/24 02:31:21;;;;;;;5.10;3.60;;;18.80;99.90;;;19.19;94.60;101332.09;5164640;28;20495;-70
2022/07/24 02:33:53;;;;;;;5.70;3.78;;;18.80;99.90;;;19.17;94.96;101333.84;5164816;28;20046;-71
2022/07/24 02:36:26;;;;;;;5.93;3.95;;;18.80;99.90;;;19.13;95.54;101331.16;5164635;28;20104;-71
2022/07/24 02:38:59;;;;;;;5.95;3.95;;;18.80;99.90;;;19.09;96.18;101332.88;5164436;28;20048;-71
2022/07/24 02:41:31;;;;;;;5.15;3.70;;;18.70;99.90;;;19.06;96.76;101334.63;5164605;28;20045;-71
2022/07/24 02:44:04;;;;;;;5.97;4.10;;;18.60;99.90;;;19.01;97.12;101336.31;5164393;28;20084;-69
2022/07/24 02:46:36;;;;;;;4.97;3.72;;;18.60;99.90;;;18.95;97.18;101340.69;5164660;28;20049;-71
2022/07/24 02:49:08;;;;;;;3.83;3.35;;;18.60;99.90;;;18.92;97.79;101332.75;5164357;28;20046;-70
2022/07/24 02:51:40;;;;;;;5.70;3.85;;;18.50;99.90;;;18.89;98.28;101332.69;5164536;28;20610;-71
2022/07/24 02:54:14;;;;;;;5.88;3.92;;;18.50;99.90;;;18.86;98.69;101323.88;5164612;28;20043;-71
2022/07/24 02:56:46;;;;;;;6.00;4.28;;;18.40;99.90;;;18.80;99.15;101326.44;5165590;28;20513;-72
2022/07/24 02:59:18;;;;;;;6.63;4.30;;;18.40;99.90;;;18.80;99.34;101327.34;5168107;28;20105;-70
2022/07/24 03:01:50;;;;;;;6.10;3.90;;;18.40;99.90;;;18.80;99.01;101321.16;5167995;28;20051;-71
2022/07/24 03:04:23;;;;;;;6.05;4.82;;;18.40;99.90;;;18.77;99.28;101319.38;5168185;28;20419;-71
2022/07/24 03:06:55;;;;;;;5.28;3.85;;;18.40;99.90;;;18.76;99.39;101319.34;5166928;28;20088;-71
2022/07/24 03:09:28;;;;;;;5.75;4.00;;;18.40;99.90;;;18.72;99.79;101325.50;5167822;28;20045;-71
2022/07/24 03:12:00;;;;;;;4.75;3.67;;;18.40;99.90;;;18.70;100.00;101318.41;5167785;28;20049;-70
2022/07/24 03:14:33;;;;;;;5.38;3.95;;;18.30;99.90;;;18.66;100.00;101324.56;5168083;28;20050;-70
2022/07/24 03:17:06;;;;;;;5.40;3.90;;;18.30;99.90;;;18.65;100.00;101322.75;5166530;28;20149;-70
2022/07/24 03:19:38;;;;;;;6.25;4.72;;;18.30;99.90;;;18.65;100.00;101322.75;5167849;28;20046;-69
2022/07/24 03:22:10;;;;;;;4.82;3.80;;;18.30;99.90;;;18.64;100.00;101320.09;5167654;28;20043;-70
2022/07/24 03:24:44;;;;;;;5.78;3.90;;;18.20;99.90;;;18.61;100.00;101317.44;5167852;28;20060;-70
2022/07/24 03:27:16;;;;;;;5.18;3.67;;;18.20;99.90;;;18.58;100.00;101317.38;5167475;28;20074;-71
2022/07/24 03:29:48;;;;;;;5.22;3.78;;;18.20;99.90;;;18.54;100.00;101313.84;5167631;28;20042;-71
2022/07/24 03:32:20;;;;;;;4.90;3.80;;;18.20;99.90;;;18.53;100.00;101308.56;5167529;28;20050;-71
2022/07/24 03:34:52;;;;;;;5.43;4.15;;;18.10;99.90;;;18.51;100.00;101319.06;5167612;28;20407;-70
2022/07/24 03:37:24;;;;;;;5.35;3.67;;;18.10;99.90;;;18.50;100.00;101312.03;5167336;28;20054;-70
2022/07/24 03:39:58;;;;;;;5.82;4.97;;;18.10;99.90;;;18.50;100.00;101316.44;5167546;28;20407;-71
2022/07/24 03:42:30;;;;;;;5.93;3.70;;;18.10;99.90;;;18.49;100.00;101315.53;5167199;28;20054;-71
2022/07/24 03:45:03;;;;;;;6.18;3.88;;;18.10;99.90;;;18.47;100.00;101309.38;5167469;28;20054;-71
2022/07/24 03:47:35;;;;;;;5.88;3.85;;;18.10;99.90;;;18.44;100.00;101311.97;5167112;28;20046;-71
2022/07/24 03:50:09;;;;;;;5.93;4.30;;;18.10;99.90;;;18.42;100.00;101319.88;5167265;28;20134;-71
2022/07/24 03:52:41;;;;;;;5.95;4.30;;;18.10;99.90;;;18.41;100.00;101311.94;5167152;28;20399;-72
2022/07/24 03:55:14;;;;;;;6.40;3.95;;;18.10;99.90;;;18.41;100.00;101317.22;5167311;28;20133;-71
2022/07/24 03:57:46;;;;;;;6.35;4.00;;;18.00;99.90;;;18.41;100.00;101312.81;5167090;28;20050;-71
2022/07/24 04:00:19;;;;;;;6.10;3.40;;;18.10;99.90;;;18.42;100.00;101318.97;5167064;28;20048;-71
2022/07/24 04:02:51;;;;;;;5.95;3.95;;;18.10;99.90;;;18.41;100.00;101325.13;5166986;28;20113;-71
2022/07/24 04:05:23;;;;;;;5.53;3.92;;;18.10;99.90;;;18.43;100.00;101336.59;5166955;28;20515;-70
2022/07/24 04:07:55;;;;;;;5.88;4.20;;;18.10;99.90;;;18.43;100.00;101333.94;5166615;28;20042;-72
2022/07/24 04:10:29;;;;;;;5.38;3.80;;;18.10;99.90;;;18.43;100.00;101331.31;5166971;28;20070;-70
2022/07/24 04:13:01;;;;;;;6.82;3.78;;;18.10;99.90;;;18.42;100.00;101329.53;5166711;28;20121;-70
2022/07/24 04:15:33;;;;;;;5.35;4.35;;;18.00;99.90;;;18.43;100.00;101321.63;5166723;28;20403;-70
2022/07/24 04:18:06;;;;;;;6.40;3.88;;;18.00;99.90;;;18.44;100.00;101322.50;5166647;28;20540;-71
2022/07/24 04:20:38;;;;;;;5.63;3.90;;;18.10;99.90;;;18.46;100.00;101325.19;5166658;28;20057;-71
2022/07/24 04:23:10;;;;;;;5.35;3.80;;;18.10;99.90;;;18.48;100.00;101324.34;5166439;28;20058;-69
2022/07/24 04:25:44;;;;;;;6.10;4.30;;;18.10;99.90;;;18.52;100.00;101325.22;5165647;28;20039;-71
2022/07/24 04:28:16;;;;;;;5.22;3.70;;;18.10;99.90;;;18.54;100.00;101323.53;5166354;28;20077;-70
2022/07/24 04:30:49;;;;;;;4.93;3.42;;;18.10;99.90;;;18.57;100.00;101329.69;5166495;28;20066;-72
2022/07/24 04:33:21;;;;;;;5.72;3.88;;;18.20;99.90;;;18.60;100.00;101334.16;5166559;28;20046;-70
2022/07/24 04:35:53;;;;;;;5.85;4.35;;;18.20;99.90;;;18.63;100.00;101332.41;5166618;28;20051;-72
2022/07/24 04:38:25;;;;;;;6.32;4.00;;;18.20;99.90;;;18.66;100.00;101334.22;5166360;28;20070;-70
2022/07/24 04:40:58;;;;;;;6.60;3.92;;;18.20;99.90;;;18.69;100.00;101329.84;5165209;28;20134;-72
2022/07/24 04:43:31;;;;;;;5.53;3.65;;;18.30;99.90;;;18.74;100.00;101331.69;5195123;23;20045;-86
2022/07/24 04:46:03;;;;;;;6.20;3.72;;;18.30;99.90;;;18.78;99.77;101333.47;5190714;28;20046;-86
2022/07/24 04:48:35;;;;;;;6.65;4.15;;;18.40;99.90;;;18.83;99.56;101332.63;5191535;28;20048;-86
2022/07/24 04:51:07;;;;;;;6.68;3.95;;;18.40;99.90;;;18.88;99.31;101330.03;5191795;28;20041;-85
2022/07/24 04:53:39;;;;;;;5.78;4.05;;;18.40;99.90;;;18.91;98.63;101325.69;5192607;28;20056;-85
2022/07/24 04:56:13;;;;;;;6.18;4.00;;;18.50;99.90;;;18.97;98.31;101333.69;5191325;28;20060;-85
2022/07/24 04:58:45;;;;;;;5.80;3.90;;;18.60;99.90;;;19.04;97.93;101331.97;5190831;28;20046;-86
2022/07/24 05:01:17;;;;;;;5.70;3.97;;;18.60;99.90;;;19.15;97.63;101335.56;5183249;28;20050;-84
2022/07/24 05:03:49;;;;;;;7.65;4.50;;;18.70;99.90;;;19.33;97.27;101323.38;5190805;28;20140;-85
2022/07/24 05:06:21;;;;;;;6.40;4.50;;;18.80;99.90;;;19.59;96.88;101321.81;5192417;28;20049;-85
2022/07/24 05:08:54;;;;;;;7.70;4.70;;;19.10;99.90;;;19.90;94.88;101328.19;5206723;28;20137;-83
2022/07/24 05:11:27;;;;;;;8.38;4.50;;;19.30;99.90;;;20.22;92.55;101338.03;5190587;28;20046;-85
2022/07/24 05:13:59;;;;;;;6.38;4.22;;;19.60;99.90;;;20.46;90.77;101329.28;5190429;28;20049;-84
2022/07/24 05:16:31;;;;;;;6.18;4.20;;;19.90;99.90;;;20.66;89.41;101327.56;5189900;28;20104;-83
2022/07/24 05:19:04;;;;;;;7.43;5.13;;;20.10;99.90;;;20.96;88.21;101339.09;5189839;28;20453;-84
2022/07/24 05:21:36;;;;;;;7.38;4.18;;;20.30;99.90;;;21.26;86.94;101336.47;5190987;28;20077;-84
2022/07/24 05:24:09;;;;;;;7.47;4.30;;;20.60;99.90;;;21.54;85.54;101332.03;5206402;28;20078;-84
2022/07/24 05:26:42;;;;;;;6.40;3.88;;;20.90;99.90;;;21.83;83.42;101329.28;5190379;28;20045;-83
2022/07/24 05:29:14;;;;;;;5.32;3.95;;;21.10;99.90;;;22.08;82.01;101323.91;5190343;28;20050;-84
2022/07/24 05:31:47;;;;;;;4.85;3.38;;;21.30;99.90;;;22.25;80.71;101335.38;5191935;28;20048;-85
2022/07/24 05:34:19;;;;;;;6.20;4.10;;;21.60;99.70;;;22.38;79.49;101336.22;5190047;28;20069;-84
2022/07/24 05:36:51;;;;;;;5.80;3.80;;;21.70;99.10;;;22.53;78.70;101335.22;5190070;28;20050;-83
2022/07/24 05:39:23;;;;;;;7.07;4.05;;;21.80;98.80;;;22.66;78.52;101335.13;5190418;28;20049;-83
2022/07/24 05:41:57;;;;;;;6.38;3.97;;;22.00;98.60;;;22.84;77.72;101328.81;5190879;28;20409;-85
2022/07/24 05:44:29;;;;;;;5.88;3.63;;;22.10;98.20;;;22.95;76.90;101329.66;5190126;28;20050;-84
2022/07/24 05:47:01;;;;;;;7.38;4.28;;;22.30;97.90;;;23.06;75.78;101320.72;5192533;28;20467;-83
2022/07/24 05:49:33;;;;;;;4.93;3.50;;;22.40;97.40;;;23.22;74.71;101327.69;5191351;28;20049;-85
2022/07/24 05:52:05;;;;;;;5.80;3.83;;;22.50;96.80;;;23.37;74.93;101324.88;5191533;28;20046;-84
2022/07/24 05:54:38;;;;;;;5.78;3.35;;;22.70;96.70;;;23.64;74.43;101325.50;5191456;28;20065;-84
2022/07/24 05:57:11;;;;;;;5.40;3.72;;;22.80;96.60;;;23.91;73.00;101330.53;5189793;28;20044;-83
2022/07/24 05:59:43;;;;;;;6.10;3.40;;;23.10;96.10;;;23.95;71.81;101332.25;5187834;28;20050;-80
2022/07/24 06:02:15;;;;;;;5.88;3.95;;;23.20;95.30;;;24.01;71.44;101332.19;5189144;28;20037;-81
2022/07/24 06:04:47;;;;;;;5.10;3.25;;;23.30;95.00;;;24.14;70.52;101334.72;5188821;28;20049;-81
2022/07/24 06:07:19;;;;;;;4.53;3.45;;;23.40;94.50;;;24.23;70.12;101337.25;5187604;28;20053;-81
2022/07/24 06:09:52;;;;;;;4.63;3.45;;;23.50;94.40;;;24.28;70.17;101336.28;5187940;28;20069;-81
2022/07/24 06:12:25;;;;;;;4.35;3.20;;;23.60;94.00;;;24.31;70.00;101338.00;5187853;28;20046;-82
2022/07/24 06:14:57;;;;;;;6.18;3.80;;;23.60;93.70;;;24.40;70.16;101329.06;5187698;28;20054;-82
2022/07/24 06:17:30;;;;;;;6.50;3.58;;;23.70;93.80;;;24.47;69.56;101323.63;5189372;28;20084;-80
2022/07/24 06:20:02;;;;;;;5.47;3.63;;;23.70;93.40;;;24.59;68.74;101333.22;5187821;28;20038;-81
2022/07/24 06:22:34;;;;;;;3.67;3.00;;;23.80;92.90;;;24.81;68.56;101329.31;5187686;28;20056;-82
2022/07/24 06:25:07;;;;;;;5.20;3.80;;;24.00;92.90;;;25.11;67.74;101330.66;5187443;28;20049;-80
2022/07/24 06:27:43;;;;;;;4.00;3.05;;;24.20;92.60;;;25.33;66.64;101325.81;5188426;28;20574;-82
2022/07/24 06:30:17;;;;;;;5.28;3.00;;;24.50;92.00;;;25.48;65.44;101338.00;5188129;28;20054;-81
2022/07/24 06:32:50;;;;;;;5.65;3.28;;;24.60;91.00;;;25.57;65.26;101336.97;5192760;28;20518;-81
2022/07/24 06:35:23;;;;;;;5.70;3.30;;;24.70;90.70;;;25.81;64.57;101338.31;5191966;28;20065;-80
2022/07/24 06:37:56;;;;;;;5.45;4.15;;;24.90;90.30;;;25.91;63.37;101329.22;5192578;28;20419;-81
2022/07/24 06:40:29;;;;;;;5.40;3.50;;;25.10;89.00;;;26.03;63.55;101326.31;5192881;28;20109;-82
2022/07/24 06:43:02;;;;;;;5.80;3.65;;;25.20;88.80;;;26.22;63.17;101330.34;5194431;28;20404;-82
2022/07/24 06:45:36;;;;;;;4.85;3.33;;;25.40;88.10;;;26.37;62.36;101331.78;5193469;28;20056;-82
2022/07/24 06:48:08;;;;;;;4.57;3.10;;;25.50;86.80;;;26.47;62.63;101338.75;5194887;28;20050;-80
2022/07/24 06:50:40;;;;;;;6.32;3.45;;;25.60;86.50;;;26.61;61.58;101330.41;5195659;28;20050;-82
2022/07/24 06:53:12;;;;;;;5.72;3.72;;;25.70;85.40;;;26.67;61.87;101330.28;5197023;28;20129;-82
2022/07/24 06:55:44;;;;;;;4.78;3.45;;;25.80;85.40;;;26.82;61.79;101325.47;5196434;28;20042;-83
2022/07/24 06:58:18;;;;;;;4.85;2.90;;;25.90;85.10;;;26.67;61.65;101318.66;5193618;28;20057;-82
2022/07/24 07:00:50;;;;;;;4.30;3.15;;;25.90;84.30;;;26.30;61.69;101326.63;5192101;28;20069;-83
2022/07/24 07:03:22;;;;;;;5.50;3.05;;;25.70;83.60;;;26.08;62.85;101326.19;5189737;28;20037;-82
2022/07/24 07:05:54;;;;;;;4.40;3.10;;;25.50;84.40;;;26.05;63.95;101326.25;5191068;28;20500;-81
2022/07/24 07:08:26;;;;;;;4.57;2.80;;;25.40;85.70;;;26.07;63.72;101332.44;5190693;28;20050;-80
2022/07/24 07:10:58;;;;;;;4.45;3.00;;;25.30;85.50;;;26.10;63.85;101333.28;5191734;28;20116;-83
2022/07/24 07:13:32;;;;;;;4.07;3.42;;;25.30;85.60;;;26.18;63.74;101327.75;5192226;28;20477;-83
2022/07/24 07:16:05;;;;;;;5.88;3.10;;;25.40;85.90;;;26.23;63.55;101328.56;5192250;28;20080;-82
2022/07/24 07:18:37;;;;;;;3.97;2.97;;;25.30;85.80;;;26.29;63.53;101327.53;5191269;28;20040;-82
2022/07/24 07:21:09;;;;;;;4.35;3.17;;;25.40;85.70;;;26.33;63.65;101330.09;5189711;28;20436;-82
2022/07/24 07:23:41;;;;;;;5.15;3.67;;;25.40;86.00;;;26.35;62.87;101330.09;5190912;28;20416;-82
2022/07/24 07:26:13;;;;;;;4.82;2.90;;;25.40;85.20;;;26.44;62.63;101330.78;5191145;28;20034;-81
2022/07/24 07:28:47;;;;;;;5.38;3.75;;;25.50;84.80;;;26.43;62.14;101325.47;5190747;28;20427;-82
2022/07/24 07:31:19;;;;;;;4.50;2.80;;;25.50;83.90;;;26.45;62.18;101329.84;5189793;28;20100;-82
2022/07/24 07:33:51;;;;;;;4.10;3.03;;;25.60;83.80;;;26.53;62.01;101332.34;5192042;28;20038;-80
2022/07/24 07:36:23;;;;;;;5.90;3.22;;;25.60;83.50;;;26.68;62.57;101325.78;5189966;28;20061;-82
2022/07/24 07:38:57;;;;;;;4.15;2.80;;;25.70;84.10;;;26.90;62.25;101324.34;5189471;28;20050;-82
2022/07/24 07:41:29;;;;;;;4.55;3.38;;;25.90;84.10;;;27.05;61.36;101325.78;5190155;28;20429;-82
2022/07/24 07:44:03;;;;;;;4.18;3.05;;;26.00;83.00;;;27.16;60.53;101329.09;5188945;28;20540;-82
2022/07/24 07:46:35;;;;;;;4.80;3.10;;;26.20;82.10;;;27.25;60.45;101322.59;5191464;28;20046;-82
2022/07/24 07:49:07;;;;;;;4.50;3.08;;;26.20;81.70;;;27.45;60.07;101324.75;5189746;28;20053;-81
2022/07/24 07:51:39;;;;;;;4.32;2.90;;;26.40;81.30;;;27.64;59.22;101325.13;5190050;28;20054;-81
2022/07/24 07:54:11;;;;;;;4.38;2.90;;;26.50;80.20;;;27.84;58.54;101329.06;5190739;28;20504;-81
2022/07/24 07:56:44;;;;;;;5.07;2.88;;;26.70;79.60;;;28.12;58.80;101322.91;5189809;28;20504;-83
2022/07/24 07:59:17;;;;;;;3.60;2.90;;;26.90;79.70;;;28.41;58.08;101330.09;5188854;28;20041;-82
2022/07/24 08:01:49;;;;;;;5.10;2.88;;;27.10;79.20;;;28.67;57.10;101323.91;5189621;28;20044;-81
2022/07/24 08:04:22;;;;;;;3.78;2.85;;;27.30;78.30;;;28.95;57.19;101325.72;5189133;28;20140;-81
2022/07/24 08:06:54;;;;;;;4.00;2.80;;;27.50;78.30;;;29.26;56.78;101325.56;5188684;28;20060;-83
2022/07/24 08:09:26;;;;;;;3.33;2.47;;;27.70;78.10;;;29.68;55.65;101317.84;5189683;28;20053;-82
2022/07/24 08:11:58;;;;;;;3.75;2.90;;;27.90;77.10;;;30.03;54.01;101321.03;5188656;28;20054;-81
2022/07/24 08:14:32;;;;;;;3.80;2.85;;;28.10;75.70;;;30.44;53.92;101322.13;5188543;28;20053;-82
2022/07/24 08:17:04;;;;;;;3.50;2.50;;;28.30;75.60;;;30.92;53.23;101316.63;5190285;28;20046;-85
2022/07/24 08:19:36;;;;;;;4.20;2.92;;;28.60;75.80;;;31.56;52.37;101313.88;5189373;28;20053;-83
2022/07/24 08:22:09;;;;;;;3.03;2.55;;;28.90;75.30;;;32.20;50.53;101319.97;5190054;28;20133;-84
2022/07/24 08:24:41;;;;;;;2.78;2.30;;;29.20;73.30;;;32.94;48.29;101316.41;5190502;28;20054;-86
2022/07/24 08:27:13;;;;;;;4.45;3.00;;;29.60;71.40;;;33.53;47.65;101311.59;5182925;28;20463;-86
2022/07/24 08:29:47;;;;;;;4.15;2.65;;;30.00;70.60;;;34.23;47.24;101321.31;5186206;28;20144;-84
2022/07/24 08:32:19;;;;;;;;;;;30.30;70.50;;;34.93;44.96;101312.84;5191317;28;20042;-86
2022/07/24 08:34:51;;;;;;;3.67;2.78;;;30.70;68.00;;;35.94;43.42;101318.44;5189513;28;19921;-87
2022/07/24 08:37:23;;;;;;;3.78;3.00;;;31.20;67.30;;;37.06;41.29;101309.28;5188864;28;20415;-86
2022/07/24 08:39:55;;;;;;;2.85;2.33;;;31.90;65.00;;;38.12;39.47;101313.59;5189721;28;20046;-85
2022/07/24 08:42:27;;;;;;;3.60;2.70;;;32.90;62.70;;;39.01;38.87;101310.59;5186877;28;20046;-85
2022/07/24 08:45:01;;;;;;;3.55;2.53;;;33.70;60.70;;;39.86;37.04;101318.53;5187660;28;20065;-86
2022/07/24 08:47:33;;;;;;;2.78;2.40;;;34.50;58.00;;;40.49;35.69;101322.47;5188446;28;20049;-85
2022/07/24 08:50:08;;;;;;;4.10;2.67;;;35.30;55.50;;;40.92;34.87;101322.50;5187026;28;20054;-87
2022/07/24 08:52:43;;;;;;;3.80;2.47;;;36.00;54.00;;;41.32;33.99;101320.97;5185788;28;20034;-86
2022/07/24 08:55:17;;;;;;;2.63;2.40;;;36.50;52.50;;;41.71;33.69;101312.00;5170370;28;20042;-87
2022/07/24 08:57:49;;;;;;;4.82;2.97;;;36.90;51.80;;;42.01;33.23;101313.03;5188558;28;20428;-86
2022/07/24 09:00:22;;;;;;;3.45;2.72;;;37.20;50.90;;;42.17;33.20;101313.41;5184606;28;20046;-86
2022/07/24 09:02:54;;;;;;;2.90;2.50;;;37.50;50.60;;;41.59;32.83;101307.59;5186202;28;20049;-86
2022/07/24 09:05:27;;;;;;;3.45;2.80;;;37.30;49.50;;;41.57;33.12;101306.00;5167805;28;20057;-86
2022/07/24 09:08:09;;;;;;;3.30;2.65;;;37.30;49.60;;;41.86;33.66;101312.50;5168513;28;20052;-86
2022/07/24 09:10:42;;;;;;;2.95;2.53;;;37.50;50.00;;;42.14;33.27;101299.97;5167341;28;20592;-86
2022/07/24 09:13:16;;;;;;;3.33;2.72;;;37.70;49.50;;;42.34;33.27;101305.53;5166834;28;20142;-85
2022/07/24 09:15:50;;;;;;;4.57;2.95;;;37.80;49.50;;;42.59;33.17;101305.03;5167413;28;20062;-86
2022/07/24 09:18:32;;;;;;;3.08;2.78;;;38.00;49.40;;;42.68;32.28;101295.94;5167024;28;20531;-86
2022/07/24 09:21:14;;;;;;;3.75;2.92;;;38.10;48.50;;;42.50;32.40;101286.66;5167032;28;20058;-85
2022/07/24 09:23:48;;;;;;;4.70;2.97;;;38.10;48.40;;;42.13;32.90;101289.16;5181824;28;20052;-82
2022/07/24 09:26:21;;;;;;;3.45;3.15;;;37.90;48.70;;;41.78;33.14;101284.09;5183435;28;20424;-85
2022/07/24 09:28:55;;;;;;;3.53;2.88;;;37.70;49.00;;;41.31;33.41;101281.78;5188402;28;20562;-85
2022/07/24 09:31:29;;;;;;;3.92;3.03;;;37.50;48.40;;;40.40;33.69;101282.25;5187740;28;20427;-85
2022/07/24 09:34:10;;;;;;;3.00;2.70;;;37.20;48.20;;;39.03;34.64;101275.91;5188907;28;20046;-85
2022/07/24 09:36:43;;;;;;;3.72;3.10;;;36.50;48.50;;;38.23;35.80;101264.69;5189819;28;20096;-86
2022/07/24 09:39:19;;;;;;;3.78;2.90;;;36.10;49.10;;;37.32;37.43;101271.28;5190341;28;20169;-85
2022/07/24 09:41:53;;;;;;;4.38;3.10;;;35.50;50.30;;;36.46;38.04;101258.09;5188840;28;20049;-84
2022/07/24 09:44:26;;;;;;;3.97;3.00;;;34.90;50.40;;;35.58;38.59;101251.09;5186247;28;20070;-84
2022/07/24 09:47:03;;;;;;;4.18;3.38;;;34.30;50.70;;;34.64;39.83;101242.31;5179694;28;20399;-84
2022/07/24 09:49:37;;;;;;;4.38;3.33;;;33.70;51.50;;;34.35;42.30;101240.38;5180488;28;20054;-82
2022/07/24 09:52:14;;;;;;;3.97;3.05;;;33.30;53.60;;;34.28;42.53;101232.59;5183376;28;20054;-85
2022/07/24 09:54:48;;;;;;;3.92;2.83;;;33.10;53.90;;;34.20;42.00;101228.63;5188356;28;20551;-84
2022/07/24 09:57:26;;;;;;;3.63;2.90;;;32.90;53.80;;;34.18;42.48;101222.44;5187454;28;20526;-82
2022/07/24 10:00:01;;;;;;;3.63;2.90;;;32.90;54.30;;;34.04;42.22;101225.91;5189041;28;20045;-83
2022/07/24 10:02:38;;;;;;;5.57;3.25;;;32.80;54.00;;;33.94;43.07;101217.44;5187061;28;20631;-84
2022/07/24 10:05:13;;;;;;;4.80;3.10;;;32.60;54.70;;;33.95;43.92;101226.41;5186283;28;20046;-82
2022/07/24 10:07:49;;;;;;;3.83;3.33;;;32.60;55.40;;;33.91;43.93;101225.75;5185948;28;20109;-82
2022/07/24 10:10:22;;;;;;;5.38;3.40;;;32.60;55.60;;;33.78;44.05;101213.81;5187423;28;20050;-84
2022/07/24 10:12:55;;;;;;;5.25;3.10;;;32.50;55.60;;;33.75;44.21;101219.38;5187753;28;20046;-83
2022/07/24 10:15:34;;;;;;;5.20;3.13;;;32.40;56.50;;;33.75;44.71;101212.16;5186383;28;20092;-82
2022/07/24 10:18:33;;;;;;;4.10;3.30;;;32.40;56.30;;;33.81;43.96;101215.47;5187598;28;20057;-85
2022/07/24 10:21:10;;;;;;;5.32;3.50;;;32.40;55.80;;;33.74;43.78;101213.13;5187729;28;20053;-84
2022/07/24 10:24:25;;;;;;;5.93;3.60;;;32.40;55.40;;;33.61;44.43;101205.78;5187603;28;20173;-83
2022/07/24 10:27:05;;;;;;;5.13;3.40;;;32.30;55.80;;;33.63;44.82;101204.72;5168101;28;20042;-84
2022/07/24 10:29:37;;;;;;;5.38;3.65;;;32.30;56.40;;;33.66;44.59;101198.28;5166443;28;20051;-83
2022/07/24 10:32:11;;;;;;;3.45;3.03;;;32.30;56.20;;;33.49;43.93;101196.50;5166246;28;20144;-83
2022/07/24 10:34:53;;;;;;;4.95;3.25;;;32.20;55.50;;;33.40;44.33;101186.22;5166020;28;20129;-82
2022/07/24 10:37:33;;;;;;;5.32;3.97;;;32.20;55.70;;;33.36;44.99;101187.28;5165670;28;20358;-82